createdAt,value
2022-11-26T00:00:27.053Z,102041.88
2022-11-26T00:02:55.203Z,102042.03
2022-11-26T00:05:24.198Z,102046.94
2022-11-26T00:07:55.402Z,102045.59
2022-11-26T00:10:26.518Z,102040.81
2022-11-26T00:12:57.192Z,102043.03
2022-11-26T00:15:26.681Z,102050.31
2022-11-26T00:17:55.129Z,102049.63
2022-11-26T00:20:25.136Z,102059.41
2022-11-26T00:22:55.004Z,102055.53
2022-11-26T00:25:24.702Z,102050.09
2022-11-26T00:27:55.929Z,102056.25
2022-11-26T00:30:25.258Z,102057.19
2022-11-26T00:32:53.918Z,102064.63
2022-11-26T00:35:22.397Z,102065.56
2022-11-26T00:37:53.043Z,102075.06
2022-11-26T00:40:22.895Z,102078.22
2022-11-26T00:42:51.677Z,102076.19
2022-11-26T00:45:23.542Z,102075.22
2022-11-26T00:47:51.484Z,102081.47
2022-11-26T00:50:21.902Z,102087.50
2022-11-26T00:52:51.460Z,102098.22
2022-11-26T00:55:27.516Z,102100.38
2022-11-26T00:57:55.585Z,102108.34
2022-11-26T01:00:26.748Z,102107.63
2022-11-26T01:02:55.039Z,102110.59
2022-11-26T01:05:25.216Z,102106.91
2022-11-26T01:07:53.986Z,102115.09
2022-11-26T01:10:25.184Z,102107.66
2022-11-26T01:12:54.232Z,102111.75
2022-11-26T01:15:24.905Z,102120.03
2022-11-26T01:17:52.936Z,102120.69
2022-11-26T01:20:25.588Z,102119.19
2022-11-26T01:22:54.605Z,102122.75
2022-11-26T01:25:23.026Z,102129.22
2022-11-26T01:27:51.171Z,102126.69
2022-11-26T01:30:25.106Z,102133.47
2022-11-26T01:32:53.513Z,102139.97
2022-11-26T01:35:22.485Z,102141.53
2022-11-26T01:37:50.946Z,102147.16
2022-11-26T01:40:38.698Z,102147.38
2022-11-26T01:43:08.585Z,102154.47
2022-11-26T01:45:37.938Z,102154.22
2022-11-26T01:48:19.964Z,102161.63
2022-11-26T01:50:58.036Z,102159.84
2022-11-26T01:53:33.823Z,102165.63
2022-11-26T01:56:05.325Z,102160.22
2022-11-26T01:58:39.665Z,102162.94
2022-11-26T02:01:10.188Z,102163.38
2022-11-26T02:03:42.977Z,102160.53
2022-11-26T02:06:15.017Z,102163.50
2022-11-26T02:08:43.071Z,102169.75
2022-11-26T02:11:16.587Z,102174.38
2022-11-26T02:13:45.410Z,102178.66
2022-11-26T02:16:21.327Z,102170.75
2022-11-26T02:18:56.346Z,102182.44
2022-11-26T02:21:27.983Z,102188.03
2022-11-26T02:24:20.528Z,102180.13
2022-11-26T02:27:17.576Z,102189.88
2022-11-26T02:30:03.587Z,102193.78
2022-11-26T02:32:35.208Z,102201.72
2022-11-26T02:35:07.369Z,102202.63
2022-11-26T02:37:37.047Z,102202.59
2022-11-26T02:40:05.653Z,102208.69
2022-11-26T02:42:34.949Z,102208.75
2022-11-26T02:45:08.129Z,102211.91
2022-11-26T02:47:37.024Z,102219.38
2022-11-26T02:50:08.221Z,102215.72
2022-11-26T02:52:36.718Z,102210.19
2022-11-26T02:55:07.677Z,102222.78
2022-11-26T02:57:39.630Z,102215.91
2022-11-26T03:00:10.488Z,102216.94
2022-11-26T03:02:42.604Z,102221.31
2022-11-26T03:05:11.288Z,102225.09
2022-11-26T03:07:39.638Z,102228.56
2022-11-26T03:10:09.118Z,102228.16
2022-11-26T03:12:37.011Z,102230.38
2022-11-26T03:15:05.430Z,102228.44
2022-11-26T03:17:34.736Z,102233.88
2022-11-26T03:20:03.596Z,102235.84
2022-11-26T03:22:31.493Z,102239.56
2022-11-26T03:24:59.389Z,102243.06
2022-11-26T03:27:27.304Z,102240.38
2022-11-26T03:29:55.235Z,102238.75
2022-11-26T03:32:23.147Z,102246.75
2022-11-26T03:34:52.552Z,102252.06
2022-11-26T03:37:20.863Z,102248.38
2022-11-26T03:39:48.917Z,102252.06
2022-11-26T03:42:16.922Z,102261.84
2022-11-26T03:44:44.803Z,102256.69
2022-11-26T03:47:12.760Z,102260.19
2022-11-26T03:49:40.787Z,102250.44
2022-11-26T03:52:10.044Z,102249.38
2022-11-26T03:54:38.070Z,102246.69
2022-11-26T03:57:06.116Z,102250.31
2022-11-26T03:59:33.985Z,102252.31
2022-11-26T04:02:01.947Z,102248.59
2022-11-26T04:04:29.868Z,102249.63
2022-11-26T04:06:57.949Z,102245.06
2022-11-26T04:09:27.308Z,102263.03
2022-11-26T04:11:55.231Z,102270.13
2022-11-26T04:14:23.188Z,102272.88
2022-11-26T04:16:51.206Z,102275.38
2022-11-26T04:19:19.176Z,102268.22
2022-11-26T04:21:47.192Z,102279.97
2022-11-26T04:24:15.133Z,102278.38
2022-11-26T04:26:44.623Z,102282.97
2022-11-26T04:29:12.523Z,102281.31
2022-11-26T04:31:40.521Z,102282.97
2022-11-26T04:34:08.474Z,102288.47
2022-11-26T04:36:36.371Z,102294.81
2022-11-26T04:39:04.758Z,102296.53
2022-11-26T04:41:32.650Z,102300.09
2022-11-26T04:44:01.930Z,102300.97
2022-11-26T04:46:29.860Z,102305.75
2022-11-26T04:48:57.783Z,102306.66
2022-11-26T04:51:25.714Z,102296.00
2022-11-26T04:53:55.982Z,102312.16
2022-11-26T04:56:24.834Z,102305.97
2022-11-26T04:58:52.894Z,102314.97
2022-11-26T05:01:22.294Z,102322.91
2022-11-26T05:03:50.667Z,102321.09
2022-11-26T05:06:18.551Z,102318.53
2022-11-26T05:08:46.457Z,102320.31
2022-11-26T05:11:14.369Z,102320.59
2022-11-26T05:13:42.310Z,102318.94
2022-11-26T05:16:10.342Z,102327.22
2022-11-26T05:18:39.626Z,102329.19
2022-11-26T05:21:08.077Z,102337.34
2022-11-26T05:23:35.995Z,102335.53
2022-11-26T05:26:03.928Z,102340.38
2022-11-26T05:28:31.877Z,102343.94
2022-11-26T05:31:00.264Z,102346.69
2022-11-26T05:33:28.520Z,102337.75
2022-11-26T05:35:57.843Z,102345.91
2022-11-26T05:38:25.840Z,102351.47
2022-11-26T05:40:53.751Z,102360.41
2022-11-26T05:43:21.713Z,102371.03
2022-11-26T05:45:49.703Z,102371.75
2022-11-26T05:48:17.667Z,102361.22
2022-11-26T05:50:48.944Z,102373.69
2022-11-26T05:53:20.792Z,102379.28
2022-11-26T05:55:48.780Z,102375.66
2022-11-26T05:58:16.675Z,102373.03
2022-11-26T06:00:44.619Z,102382.06
2022-11-26T06:03:15.737Z,102372.41
2022-11-26T06:05:47.617Z,102369.28
2022-11-26T06:08:15.580Z,102382.00
2022-11-26T06:10:45.370Z,102374.13
2022-11-26T06:13:13.241Z,102375.94
2022-11-26T06:15:41.178Z,102379.50
2022-11-26T06:18:09.071Z,102385.81
2022-11-26T06:20:37.640Z,102381.25
2022-11-26T06:23:06.001Z,102390.22
2022-11-26T06:25:33.908Z,102390.19
2022-11-26T06:28:03.240Z,102398.19
2022-11-26T06:30:31.144Z,102400.09
2022-11-26T06:32:59.038Z,102398.19
2022-11-26T06:35:27.096Z,102410.88
2022-11-26T06:37:54.974Z,102414.44
2022-11-26T06:40:23.072Z,102419.91
2022-11-26T06:42:51.328Z,102419.25
2022-11-26T06:45:21.153Z,102421.66
2022-11-26T06:47:49.863Z,102426.28
2022-11-26T06:50:18.961Z,102434.94
2022-11-26T06:52:46.987Z,102428.78
2022-11-26T06:55:14.873Z,102425.19
2022-11-26T06:57:42.847Z,102439.63
2022-11-26T07:00:12.132Z,102430.75
2022-11-26T07:02:42.212Z,102436.06
2022-11-26T07:05:10.523Z,102436.91
2022-11-26T07:07:39.009Z,102439.78
2022-11-26T07:10:07.929Z,102451.56
2022-11-26T07:12:35.952Z,102448.81
2022-11-26T07:15:03.864Z,102455.94
2022-11-26T07:17:31.771Z,102454.13
2022-11-26T07:20:01.101Z,102455.09
2022-11-26T07:22:28.989Z,102461.31
2022-11-26T07:24:56.884Z,102458.75
2022-11-26T07:27:24.839Z,102464.84
2022-11-26T07:29:52.898Z,102465.84
2022-11-26T07:32:20.809Z,102462.53
2022-11-26T07:34:48.747Z,102478.69
2022-11-26T07:37:18.448Z,102480.59
2022-11-26T07:39:46.323Z,102472.28
2022-11-26T07:42:14.977Z,102478.63
2022-11-26T07:44:43.199Z,102474.13
2022-11-26T07:47:11.080Z,102482.66
2022-11-26T07:49:38.996Z,102491.75
2022-11-26T07:52:06.990Z,102488.28
2022-11-26T07:54:36.536Z,102490.59
2022-11-26T07:57:04.663Z,102497.94
2022-11-26T07:59:32.524Z,102493.38
2022-11-26T08:02:00.572Z,102487.03
2022-11-26T08:04:28.529Z,102495.94
2022-11-26T08:06:56.435Z,102494.00
2022-11-26T08:09:24.337Z,102503.88
2022-11-26T08:11:53.661Z,102500.97
2022-11-26T08:14:21.747Z,102502.75
2022-11-26T08:16:49.679Z,102506.38
2022-11-26T08:19:17.588Z,102507.03
2022-11-26T08:21:45.495Z,102501.47
2022-11-26T08:24:15.691Z,102492.88
2022-11-26T08:26:44.699Z,102498.78
2022-11-26T08:29:14.768Z,102504.78
2022-11-26T08:31:45.987Z,102503.00
2022-11-26T08:34:15.799Z,102507.53
2022-11-26T08:36:43.760Z,102501.16
2022-11-26T08:39:14.287Z,102509.91
2022-11-26T08:41:45.000Z,102505.63
2022-11-26T08:44:18.260Z,102521.47
2022-11-26T08:46:46.238Z,102523.34
2022-11-26T08:49:14.934Z,102528.84
2022-11-26T08:51:43.494Z,102526.88
2022-11-26T08:54:11.779Z,102529.56
2022-11-26T08:56:39.672Z,102526.88
2022-11-26T08:59:07.651Z,102527.03
2022-11-26T09:01:37.013Z,102534.44
2022-11-26T09:04:05.880Z,102534.22
2022-11-26T09:06:36.773Z,102528.81
2022-11-26T09:09:17.353Z,102523.66
2022-11-26T09:11:47.793Z,102535.38
2022-11-26T09:14:17.075Z,102530.72
2022-11-26T09:16:46.405Z,102534.44
2022-11-26T09:19:15.237Z,102536.91
2022-11-26T09:21:43.242Z,102544.75
2022-11-26T09:24:11.144Z,102546.16
2022-11-26T09:26:39.447Z,102544.47
2022-11-26T09:29:07.851Z,102544.81
2022-11-26T09:31:35.825Z,102553.06
2022-11-26T09:34:05.220Z,102564.38
2022-11-26T09:36:33.180Z,102559.16
2022-11-26T09:39:01.245Z,102560.44
2022-11-26T09:41:42.689Z,102564.91
2022-11-26T09:44:27.668Z,102557.63
2022-11-26T09:47:12.082Z,102563.97
2022-11-26T09:49:48.988Z,102565.13
2022-11-26T09:52:19.353Z,102565.25
2022-11-26T09:54:48.212Z,102578.25
2022-11-26T09:57:22.821Z,102569.78
2022-11-26T09:59:51.645Z,102573.50
2022-11-26T10:02:19.730Z,102584.50
2022-11-26T10:04:49.324Z,102575.66
2022-11-26T10:07:31.599Z,102581.72
2022-11-26T10:10:06.698Z,102587.06
2022-11-26T10:13:10.825Z,102583.97
2022-11-26T10:15:38.265Z,102600.94
2022-11-26T10:18:15.475Z,102588.09
2022-11-26T10:20:55.803Z,102591.94
2022-11-26T10:23:27.735Z,102584.81
2022-11-26T10:25:59.774Z,102596.97
2022-11-26T10:28:29.484Z,102602.06
2022-11-26T10:31:00.991Z,102601.31
2022-11-26T10:33:31.698Z,102593.06
2022-11-26T10:36:01.064Z,102591.81
2022-11-26T10:38:28.977Z,102594.56
2022-11-26T10:40:56.900Z,102594.88
2022-11-26T10:43:25.431Z,102591.06
2022-11-26T10:45:55.255Z,102609.47
2022-11-26T10:48:25.984Z,102608.22
2022-11-26T10:51:00.627Z,102604.44
2022-11-26T10:53:30.427Z,102602.34
2022-11-26T10:55:59.877Z,102607.63
2022-11-26T10:58:30.177Z,102604.91
2022-11-26T11:01:00.899Z,102604.22
2022-11-26T11:04:06.169Z,102605.31
2022-11-26T11:06:45.529Z,102607.81
2022-11-26T11:09:25.819Z,102609.13
2022-11-26T11:12:22.466Z,102606.13
2022-11-26T11:14:51.634Z,102594.91
2022-11-26T11:17:35.153Z,102606.00
2022-11-26T11:20:22.647Z,102604.56
2022-11-26T11:22:59.183Z,102610.59
2022-11-26T11:25:29.217Z,102606.81
2022-11-26T11:28:02.083Z,102617.69
2022-11-26T11:30:32.386Z,102617.44
2022-11-26T11:33:12.380Z,102610.72
2022-11-26T11:35:41.349Z,102598.44
2022-11-26T11:38:23.022Z,102601.91
2022-11-26T11:40:51.461Z,102594.94
2022-11-26T11:43:22.645Z,102597.78
2022-11-26T11:46:05.278Z,102594.34
2022-11-26T11:48:43.456Z,102596.78
2022-11-26T11:51:17.593Z,102598.06
2022-11-26T11:53:52.762Z,102605.00
2022-11-26T11:56:26.376Z,102602.66
2022-11-26T11:59:04.472Z,102599.53
2022-11-26T12:04:53.377Z,102601.03
2022-11-26T12:07:39.054Z,102584.06
2022-11-26T12:10:14.438Z,102582.22
2022-11-26T12:12:45.194Z,102584.00
2022-11-26T12:15:19.073Z,102587.50
2022-11-26T12:17:49.988Z,102599.78
2022-11-26T12:20:22.535Z,102588.34
2022-11-26T12:22:58.100Z,102591.94
2022-11-26T12:25:35.191Z,102596.34
2022-11-26T12:28:08.201Z,102597.94
2022-11-26T12:30:46.999Z,102594.25
2022-11-26T12:33:20.569Z,102598.59
2022-11-26T12:35:53.592Z,102594.09
2022-11-26T12:38:28.251Z,102609.34
2022-11-26T12:41:00.866Z,102604.66
2022-11-26T12:43:34.049Z,102605.59
2022-11-26T12:46:04.579Z,102606.28
2022-11-26T12:48:37.691Z,102601.78
2022-11-26T12:51:15.417Z,102598.09
2022-11-26T12:53:51.078Z,102596.03
2022-11-26T12:56:22.315Z,102588.00
2022-11-26T12:58:59.428Z,102580.13
2022-11-26T13:01:27.882Z,102576.19
2022-11-26T13:04:21.526Z,102581.34
2022-11-26T13:06:56.865Z,102577.31
2022-11-26T13:09:36.806Z,102579.72
2022-11-26T13:12:10.219Z,102580.28
2022-11-26T13:14:44.558Z,102575.09
2022-11-26T13:17:14.659Z,102575.19
2022-11-26T13:19:46.424Z,102579.56
2022-11-26T13:22:35.543Z,102584.75
2022-11-26T13:25:21.188Z,102587.44
2022-11-26T13:27:55.556Z,102586.66
2022-11-26T13:30:27.164Z,102583.06
2022-11-26T13:33:30.989Z,102579.47
2022-11-26T13:36:29.178Z,102580.34
2022-11-26T13:39:06.421Z,102575.97
2022-11-26T13:41:51.845Z,102582.38
2022-11-26T13:44:51.473Z,102575.00
2022-11-26T13:47:23.138Z,102573.28
2022-11-26T13:49:55.069Z,102576.88
2022-11-26T13:52:25.689Z,102568.81
2022-11-26T13:54:57.760Z,102573.41
2022-11-26T13:57:31.645Z,102578.66
2022-11-26T14:00:00.112Z,102576.91
2022-11-26T14:02:44.278Z,102579.56
2022-11-26T14:05:14.461Z,102584.09
2022-11-26T14:07:42.997Z,102585.88
2022-11-26T14:10:42.392Z,102588.66
2022-11-26T14:13:16.600Z,102600.34
2022-11-26T14:16:05.243Z,102590.56
2022-11-26T14:18:56.623Z,102595.97
2022-11-26T14:21:24.792Z,102593.47
2022-11-26T14:23:53.388Z,102591.59
2022-11-26T14:26:26.415Z,102584.44
2022-11-26T14:29:05.091Z,102597.88
2022-11-26T14:31:39.048Z,102576.44
2022-11-26T14:34:12.261Z,102578.16
2022-11-26T14:36:52.683Z,102580.06
2022-11-26T14:39:20.596Z,102581.75
2022-11-26T14:41:53.143Z,102580.00
2022-11-26T14:44:23.197Z,102586.25
2022-11-26T14:46:53.862Z,102579.13
2022-11-26T14:49:36.002Z,102581.81
2022-11-26T14:52:06.323Z,102575.63
2022-11-26T14:54:37.677Z,102580.94
2022-11-26T14:57:08.766Z,102578.16
2022-11-26T14:59:38.059Z,102575.44
2022-11-26T15:02:21.851Z,102572.78
2022-11-26T15:04:59.124Z,102569.91
2022-11-26T15:07:27.928Z,102581.56
2022-11-26T15:10:07.077Z,102577.03
2022-11-26T15:12:35.828Z,102586.78
2022-11-26T15:15:06.408Z,102586.88
2022-11-26T15:17:35.456Z,102580.56
2022-11-26T15:20:07.034Z,102585.06
2022-11-26T15:22:37.689Z,102583.25
2022-11-26T15:25:07.116Z,102585.75
2022-11-26T15:27:37.997Z,102582.97
2022-11-26T15:30:19.853Z,102587.44
2022-11-26T15:32:47.847Z,102590.16
2022-11-26T15:35:17.786Z,102599.81
2022-11-26T15:37:45.672Z,102586.53
2022-11-26T15:40:22.712Z,102587.22
2022-11-26T15:42:51.843Z,102581.84
2022-11-26T15:45:22.615Z,102597.06
2022-11-26T15:47:53.624Z,102593.69
2022-11-26T15:50:33.317Z,102580.97
2022-11-26T15:53:04.615Z,102587.22
2022-11-26T15:55:35.937Z,102587.84
2022-11-26T15:58:06.553Z,102592.47
2022-11-26T16:00:38.008Z,102593.56
2022-11-26T16:03:07.299Z,102594.25
2022-11-26T16:05:38.584Z,102590.69
2022-11-26T16:08:23.969Z,102588.19
2022-11-26T16:10:55.988Z,102590.88
2022-11-26T16:13:28.506Z,102592.16
2022-11-26T16:16:01.178Z,102590.81
2022-11-26T16:18:35.948Z,102594.47
2022-11-26T16:21:08.939Z,102589.88
2022-11-26T16:23:36.901Z,102593.50
2022-11-26T16:26:10.078Z,102590.63
2022-11-26T16:28:38.148Z,102587.09
2022-11-26T16:31:08.166Z,102593.31
2022-11-26T16:33:36.117Z,102595.94
2022-11-26T16:36:06.716Z,102592.44
2022-11-26T16:38:34.621Z,102603.22
2022-11-26T16:41:02.523Z,102601.03
2022-11-26T16:43:30.625Z,102598.75
2022-11-26T16:45:59.871Z,102601.66
2022-11-26T16:48:29.220Z,102594.47
2022-11-26T16:50:57.334Z,102598.50
2022-11-26T16:53:25.444Z,102596.63
2022-11-26T16:55:53.752Z,102593.03
2022-11-26T16:58:27.930Z,102601.06
2022-11-26T17:00:57.037Z,102590.47
2022-11-26T17:03:25.549Z,102594.66
2022-11-26T17:05:56.976Z,102585.63
2022-11-26T17:08:25.373Z,102582.88
2022-11-26T17:10:53.303Z,102583.94
2022-11-26T17:13:21.367Z,102583.81
2022-11-26T17:15:50.521Z,102582.25
2022-11-26T17:18:20.313Z,102580.56
2022-11-26T17:20:48.738Z,102584.81
2022-11-26T17:23:18.552Z,102582.00
2022-11-26T17:25:47.775Z,102579.38
2022-11-26T17:28:16.869Z,102586.72
2022-11-26T17:30:45.852Z,102592.09
2022-11-26T17:33:14.180Z,102589.94
2022-11-26T17:35:42.320Z,102593.72
2022-11-26T17:38:15.673Z,102595.69
2022-11-26T17:40:46.272Z,102600.78
2022-11-26T17:43:14.643Z,102587.38
2022-11-26T17:45:42.882Z,102594.47
2022-11-26T17:48:12.444Z,102591.56
2022-11-26T17:50:40.805Z,102589.66
2022-11-26T17:53:08.736Z,102587.97
2022-11-26T17:55:36.821Z,102580.63
2022-11-26T17:58:06.063Z,102586.13
2022-11-26T18:00:34.079Z,102586.03
2022-11-26T18:03:02.071Z,102575.38
2022-11-26T18:05:30.216Z,102577.06
2022-11-26T18:07:58.447Z,102579.84
2022-11-26T18:10:26.534Z,102584.44
2022-11-26T18:12:55.221Z,102582.75
2022-11-26T18:15:26.026Z,102581.75
2022-11-26T18:17:55.613Z,102582.06
2022-11-26T18:20:26.489Z,102586.16
2022-11-26T18:22:56.346Z,102578.28
2022-11-26T18:25:24.392Z,102582.59
2022-11-26T18:27:52.731Z,102582.75
2022-11-26T18:30:21.432Z,102587.19
2022-11-26T18:32:50.711Z,102590.75
2022-11-26T18:35:18.733Z,102585.44
2022-11-26T18:37:46.723Z,102588.13
2022-11-26T18:40:16.907Z,102588.19
2022-11-26T18:42:44.899Z,102582.66
2022-11-26T18:45:14.815Z,102591.69
2022-11-26T18:47:42.730Z,102584.63
2022-11-26T18:50:13.812Z,102579.31
2022-11-26T18:52:41.732Z,102579.38
2022-11-26T18:55:10.141Z,102572.44
2022-11-26T18:57:38.172Z,102571.34
2022-11-26T19:00:07.797Z,102576.94
2022-11-26T19:02:36.560Z,102569.94
2022-11-26T19:05:04.733Z,102567.31
2022-11-26T19:07:34.608Z,102561.94
2022-11-26T19:10:02.629Z,102566.44
2022-11-26T19:12:30.670Z,102569.22
2022-11-26T19:14:58.548Z,102565.69
2022-11-26T19:17:26.493Z,102563.06
2022-11-26T19:19:54.388Z,102562.25
2022-11-26T19:22:22.565Z,102566.84
2022-11-26T19:24:51.893Z,102560.59
2022-11-26T19:27:19.777Z,102565.16
2022-11-26T19:29:47.679Z,102563.41
2022-11-26T19:32:15.579Z,102561.63
2022-11-26T19:34:43.529Z,102558.94
2022-11-26T19:37:11.413Z,102551.81
2022-11-26T19:39:40.430Z,102560.84
2022-11-26T19:42:10.103Z,102559.16
2022-11-26T19:44:38.126Z,102555.59
2022-11-26T19:47:06.101Z,102553.78
2022-11-26T19:49:34.682Z,102552.09
2022-11-26T19:52:02.785Z,102540.56
2022-11-26T19:54:30.708Z,102542.56
2022-11-26T19:56:58.920Z,102553.31
2022-11-26T19:59:28.260Z,102547.84
2022-11-26T20:01:56.280Z,102550.59
2022-11-26T20:04:27.517Z,102551.66
2022-11-26T20:06:55.628Z,102553.56
2022-11-26T20:09:24.039Z,102554.56
2022-11-26T20:11:51.989Z,102547.38
2022-11-26T20:14:19.994Z,102553.75
2022-11-26T20:16:49.424Z,102551.19
2022-11-26T20:19:18.070Z,102551.25
2022-11-26T20:21:45.996Z,102544.13
2022-11-26T20:24:16.089Z,102553.00
2022-11-26T20:26:45.453Z,102552.06
2022-11-26T20:29:15.123Z,102548.72
2022-11-26T20:31:45.873Z,102546.13
2022-11-26T20:34:15.889Z,102548.94
2022-11-26T20:36:44.052Z,102544.50
2022-11-26T20:39:14.308Z,102548.19
2022-11-26T20:41:42.332Z,102545.59
2022-11-26T20:44:10.513Z,102551.00
2022-11-26T20:46:38.622Z,102551.00
2022-11-26T20:49:07.146Z,102545.78
2022-11-26T20:51:36.429Z,102553.97
2022-11-26T20:54:04.754Z,102545.16
2022-11-26T20:56:33.196Z,102552.22
2022-11-26T20:59:02.450Z,102555.88
2022-11-26T21:01:31.568Z,102553.31
2022-11-26T21:04:00.148Z,102550.66
2022-11-26T21:06:30.382Z,102556.00
2022-11-26T21:09:00.790Z,102550.59
2022-11-26T21:11:29.067Z,102554.03
2022-11-26T21:13:58.695Z,102553.09
2022-11-26T21:16:27.212Z,102551.34
2022-11-26T21:18:55.880Z,102549.66
2022-11-26T21:21:24.837Z,102562.88
2022-11-26T21:23:52.924Z,102557.41
2022-11-26T21:26:25.996Z,102555.66
2022-11-26T21:28:55.004Z,102553.78
2022-11-26T21:31:23.449Z,102561.06
2022-11-26T21:33:56.021Z,102566.34
2022-11-26T21:36:24.775Z,102571.75
2022-11-26T21:38:52.696Z,102574.94
2022-11-26T21:41:22.439Z,102579.63
2022-11-26T21:43:51.183Z,102575.13
2022-11-26T21:46:21.056Z,102579.63
2022-11-26T21:48:49.036Z,102575.38
2022-11-26T21:51:18.212Z,102586.06
2022-11-26T21:53:46.877Z,102577.00
2022-11-26T21:56:17.134Z,102588.56
2022-11-26T21:58:46.624Z,102593.06
2022-11-26T22:01:16.154Z,102578.66
2022-11-26T22:03:46.013Z,102583.81
2022-11-26T22:06:14.742Z,102564.03
2022-11-26T22:08:43.024Z,102568.47
2022-11-26T22:11:12.391Z,102575.44
2022-11-26T22:13:40.849Z,102580.94
2022-11-26T22:16:11.738Z,102588.09
2022-11-26T22:18:40.415Z,102583.50
2022-11-26T22:21:09.377Z,102587.97
2022-11-26T22:23:37.505Z,102594.88
2022-11-26T22:26:05.627Z,102594.19
2022-11-26T22:28:33.554Z,102584.63
2022-11-26T22:31:11.510Z,102579.28
2022-11-26T22:33:39.905Z,102570.19
2022-11-26T22:36:08.265Z,102584.31
2022-11-26T22:38:36.893Z,102595.56
2022-11-26T22:41:06.082Z,102606.28
2022-11-26T22:43:34.253Z,102605.47
2022-11-26T22:46:04.405Z,102604.47
2022-11-26T22:48:34.077Z,102594.38
2022-11-26T22:51:02.118Z,102592.84
2022-11-26T22:53:30.027Z,102592.06
2022-11-26T22:55:59.868Z,102582.50
2022-11-26T22:58:28.825Z,102567.88
2022-11-26T23:00:58.476Z,102557.69
2022-11-26T23:03:27.994Z,102564.00
2022-11-26T23:05:57.461Z,102549.50
2022-11-26T23:08:25.357Z,102552.28
2022-11-26T23:10:53.289Z,102538.50
2022-11-26T23:13:21.168Z,102533.50
2022-11-26T23:15:49.070Z,102527.59
2022-11-26T23:18:17.550Z,102529.63
2022-11-26T23:20:45.518Z,102525.22
2022-11-26T23:23:15.413Z,102515.53
2022-11-26T23:25:43.387Z,102510.34
2022-11-26T23:28:11.313Z,102520.44
2022-11-26T23:30:39.212Z,102512.69
2022-11-26T23:33:07.253Z,102512.88
2022-11-26T23:35:35.175Z,102513.88
2022-11-26T23:38:03.746Z,102497.13
2022-11-26T23:40:33.021Z,102493.47
2022-11-26T23:43:04.716Z,102494.69
2022-11-26T23:45:36.321Z,102479.63
2022-11-26T23:48:04.347Z,102478.63
2022-11-26T23:50:32.216Z,102479.63
2022-11-26T23:53:00.136Z,102477.00
2022-11-26T23:55:28.012Z,102470.94
2022-11-26T23:57:57.276Z,102463.81
